Time;durP1;ratioP1;P1;durP2;ratioP2;P2;SDS_P1;SDS_P2;PMS_P1;PMS_P2;Temp;Humidity;BMP_temperature;BMP_pressure;BME280_temperature;BME280_humidity;BME280_pressure;Samples;Min_cycle;Max_cycle;Signal;HPM_P1;HPM_P2
2023/03/30 00:01:42;;;;;;;4.60;1.20;;;;;;;0.68;56.81;100639.27;105764;1260;61398;-47
2023/03/30 00:04:11;;;;;;;3.60;1.10;;;;;;;0.72;56.70;100642.56;105144;1260;74060;-47
2023/03/30 00:06:41;;;;;;;3.20;1.20;;;;;;;0.77;56.47;100645.18;105350;1260;71233;-47
2023/03/30 00:09:09;;;;;;;4.40;1.30;;;;;;;0.76;56.56;100641.40;105046;1260;72639;-46
2023/03/30 00:11:42;;;;;;;5.20;1.40;;;;;;;0.71;56.54;100640.86;105168;1259;60255;-46
2023/03/30 00:14:11;;;;;;;5.50;1.30;;;;;;;0.69;56.76;100637.51;105233;1260;61505;-46
2023/03/30 00:16:40;;;;;;;4.70;1.20;;;;;;;0.71;56.83;100636.73;105368;1261;74019;-46
2023/03/30 00:19:08;;;;;;;7.80;2.60;;;;;;;0.74;56.71;100636.27;105195;1262;70202;-46
2023/03/30 00:21:36;;;;;;;6.90;1.50;;;;;;;0.75;56.63;100636.95;105092;1259;73766;-46
2023/03/30 00:24:06;;;;;;;6.80;1.60;;;;;;;0.69;56.62;100635.08;105126;1260;60565;-46
2023/03/30 00:26:35;;;;;;;5.30;1.80;;;;;;;0.64;56.62;100636.98;105173;1260;61261;-46
2023/03/30 00:29:05;;;;;;;4.80;1.40;;;;;;;0.56;56.67;100630.70;105190;1260;72968;-46
2023/03/30 00:31:33;;;;;;;6.20;2.30;;;;;;;0.48;57.02;100632.69;105102;1260;71330;-46
2023/03/30 00:34:01;;;;;;;5.40;1.70;;;;;;;0.44;57.15;100633.34;105155;1260;73461;-46
2023/03/30 00:36:35;;;;;;;6.00;1.80;;;;;;;0.41;57.27;100634.52;105092;1260;60621;-46
2023/03/30 00:39:05;;;;;;;4.50;2.10;;;;;;;0.37;57.36;100638.42;105253;1260;60547;-46
2023/03/30 00:41:34;;;;;;;4.40;1.40;;;;;;;0.31;57.54;100636.88;105183;1260;73531;-46
2023/03/30 00:44:06;;;;;;;3.50;1.20;;;;;;;0.27;57.57;100635.98;105132;1260;71221;-46
2023/03/30 00:46:35;;;;;;;5.80;2.50;;;;;;;0.23;57.81;100637.52;105071;1260;73942;-46
2023/03/30 00:49:08;;;;;;;6.50;1.40;;;;;;;0.19;57.78;100639.54;105004;1260;61545;-46
2023/03/30 00:51:41;;;;;;;7.30;2.10;;;;;;;0.15;57.91;100640.34;105093;1261;60569;-46
2023/03/30 00:54:13;;;;;;;4.60;1.40;;;;;;;0.12;58.01;100641.47;105003;1264;74041;-46
2023/03/30 00:56:41;;;;;;;5.70;1.70;;;;;;;0.09;58.04;100646.40;105353;1262;70416;-46
2023/03/30 00:59:10;;;;;;;4.50;1.50;;;;;;;0.08;58.17;100647.64;105242;1262;72786;-46
2023/03/30 01:01:42;;;;;;;4.10;1.50;;;;;;;0.10;58.15;100653.64;105182;1260;62083;-46
2023/03/30 01:04:13;;;;;;;5.70;1.40;;;;;;;0.13;58.09;100652.51;104980;1260;61076;-47
2023/03/30 01:06:44;;;;;;;3.60;1.20;;;;;;;0.17;58.04;100652.53;104909;1265;74371;-47
2023/03/30 01:09:14;;;;;;;5.60;1.40;;;;;;;0.22;57.92;100655.83;105120;1260;69992;-47
2023/03/30 01:11:43;;;;;;;6.60;1.70;;;;;;;0.24;57.76;100657.33;105287;1262;73486;-47
2023/03/30 01:14:12;;;;;;;5.30;1.60;;;;;;;0.22;57.65;100658.43;105226;1260;60999;-47
2023/03/30 01:17:12;;;;;;;4.20;1.40;;;;;;;0.18;57.63;100661.30;105276;1261;61307;-46
2023/03/30 01:20:10;;;;;;;4.10;1.10;;;;;;;0.13;57.66;100665.08;105118;1260;65767;-46
2023/03/30 01:22:51;;;;;;;4.70;1.40;;;;;;;0.09;57.59;100666.23;105268;1260;62623;-46
2023/03/30 01:25:28;;;;;;;3.40;1.20;;;;;;;0.03;57.57;100669.35;105189;1262;64886;-47
2023/03/30 01:28:17;;;;;;;5.30;1.80;;;;;;;-0.03;57.71;100670.43;105055;1260;60568;-46
2023/03/30 01:31:13;;;;;;;5.90;1.80;;;;;;;-0.08;57.81;100670.92;105275;1257;60572;-46
2023/03/30 01:34:00;;;;;;;4.80;1.20;;;;;;;-0.11;57.87;100676.19;105093;1265;65920;-47
2023/03/30 01:36:41;;;;;;;5.60;1.80;;;;;;;-0.17;58.06;100679.13;105246;1260;62362;-46
2023/03/30 01:39:12;;;;;;;6.60;2.20;;;;;;;-0.24;58.17;100685.04;105021;1260;73592;-46
2023/03/30 01:42:04;;;;;;;6.40;1.50;;;;;;;-0.28;58.25;100686.20;105151;1260;60552;-46
2023/03/30 01:45:00;;;;;;;3.90;1.60;;;;;;;-0.31;58.42;100689.40;105180;1260;60597;-46
2023/03/30 01:47:38;;;;;;;4.30;1.60;;;;;;;-0.35;58.51;100692.44;104989;1264;65081;-47
2023/03/30 01:50:12;;;;;;;5.80;2.00;;;;;;;-0.38;58.61;100693.04;104897;1265;71296;-47
2023/03/30 01:52:52;;;;;;;6.20;2.20;;;;;;;-0.41;58.74;100687.61;105284;1260;74126;-46
2023/03/30 01:55:43;;;;;;;6.30;2.70;;;;;;;-0.44;58.82;100686.84;105175;1260;60555;-46
2023/03/30 01:58:16;;;;;;;4.20;1.10;;;;;;;-0.40;58.70;100687.75;105062;1259;62834;-46
2023/03/30 02:00:48;;;;;;;3.90;1.40;;;;;;;-0.31;58.52;100693.54;105609;1260;74876;-46
2023/03/30 02:03:21;;;;;;;4.90;1.10;;;;;;;-0.25;58.49;100697.13;105331;1257;69989;-48
2023/03/30 02:05:51;;;;;;;5.40;1.10;;;;;;;-0.20;58.26;100698.86;105336;1260;73619;-46
2023/03/30 02:08:23;;;;;;;3.60;1.20;;;;;;;-0.17;58.19;100706.91;105410;1254;60459;-46
2023/03/30 02:10:52;;;;;;;4.40;1.40;;;;;;;-0.20;58.25;100708.88;105306;1257;61802;-46
2023/03/30 02:13:21;;;;;;;6.20;1.50;;;;;;;-0.22;58.16;100713.08;105325;1259;74532;-47
2023/03/30 02:16:03;;;;;;;4.30;1.80;;;;;;;-0.25;58.15;100716.80;105315;1257;71148;-47
2023/03/30 02:18:32;;;;;;;5.70;2.10;;;;;;;-0.29;58.17;100711.23;105293;1257;64747;-46
2023/03/30 02:21:01;;;;;;;4.30;1.50;;;;;;;-0.33;58.36;100716.86;105190;1257;60478;-46
2023/03/30 02:23:34;;;;;;;6.60;1.90;;;;;;;-0.37;58.37;100721.45;105332;1257;60447;-47
2023/03/30 02:26:03;;;;;;;4.70;1.60;;;;;;;-0.41;58.43;100721.58;105146;1257;74531;-47
2023/03/30 02:28:34;;;;;;;8.10;2.10;;;;;;;-0.46;58.54;100721.73;105321;1257;71451;-47
2023/03/30 02:31:02;;;;;;;5.70;2.10;;;;;;;-0.50;58.62;100721.98;105296;1254;73636;-48
2023/03/30 02:33:47;;;;;;;8.00;2.20;;;;;;;-0.53;58.75;100722.44;105364;1259;60624;-46
2023/03/30 02:36:36;;;;;;;10.00;4.00;;;;;;;-0.56;58.82;100718.71;105191;1254;60434;-47
2023/03/30 02:39:17;;;;;;;14.10;5.90;;;;;;;-0.61;58.85;100722.15;105434;1262;66201;-47
2023/03/30 02:42:12;;;;;;;17.70;6.30;;;;;;;-0.67;59.11;100725.75;105327;1257;62640;-47
2023/03/30 02:44:59;;;;;;;25.90;6.40;;;;;;;-0.72;59.13;100730.91;105288;1262;64899;-47
2023/03/30 02:47:33;;;;;;;15.90;6.60;;;;;;;-0.77;59.35;100731.21;105193;1257;60390;-49
2023/03/30 02:50:13;;;;;;;24.10;8.00;;;;;;;-0.79;59.34;100733.83;105221;1263;61051;-46
2023/03/30 02:52:58;;;;;;;38.30;14.40;;;;;;;-0.77;59.27;100735.84;105607;1257;68274;-47
2023/03/30 02:55:37;;;;;;;62.10;18.20;;;;;;;-0.67;59.11;100742.13;105551;1259;62387;-47
2023/03/30 02:58:31;;;;;;;61.00;18.00;;;;;;;-0.57;58.91;100745.66;105333;1257;64880;-47
2023/03/30 03:01:16;;;;;;;83.50;23.40;;;;;;;-0.47;58.70;100747.96;105237;1257;60552;-47
2023/03/30 03:04:11;;;;;;;60.80;18.10;;;;;;;-0.37;58.45;100747.31;105320;1257;60363;-48
2023/03/30 03:06:51;;;;;;;37.40;16.10;;;;;;;-0.36;58.18;100751.77;105446;1257;75087;-46
2023/03/30 03:09:20;;;;;;;42.50;13.40;;;;;;;-0.39;58.23;100761.50;105239;1257;71306;-47
2023/03/30 03:11:48;;;;;;;32.30;13.20;;;;;;;-0.42;58.21;100759.87;105441;1256;73395;-47
2023/03/30 03:14:17;;;;;;;21.80;8.80;;;;;;;-0.46;58.22;100762.76;105415;1257;60854;-46
2023/03/30 03:16:46;;;;;;;19.10;7.50;;;;;;;-0.51;58.51;100762.73;105424;1259;61629;-47
2023/03/30 03:19:15;;;;;;;15.70;4.80;;;;;;;-0.56;58.47;100765.77;105320;1259;74743;-47
2023/03/30 03:21:46;;;;;;;15.40;6.10;;;;;;;-0.61;58.62;100766.24;105350;1260;71211;-47
2023/03/30 03:24:16;;;;;;;15.50;4.50;;;;;;;-0.66;58.81;100767.27;105303;1257;74148;-47
2023/03/30 03:27:03;;;;;;;22.30;5.80;;;;;;;-0.72;59.00;100766.38;105395;1257;60555;-47
2023/03/30 03:29:36;;;;;;;14.70;7.30;;;;;;;-0.77;59.00;100768.91;105208;1257;61100;-46
2023/03/30 03:32:06;;;;;;;10.80;4.60;;;;;;;-0.79;58.99;100775.20;105085;1256;74034;-46
2023/03/30 03:34:43;;;;;;;14.60;5.20;;;;;;;-0.82;59.20;100776.64;105232;1256;71210;-46
2023/03/30 03:37:13;;;;;;;13.00;5.20;;;;;;;-0.85;59.45;100779.13;105336;1260;72628;-46
2023/03/30 03:39:48;;;;;;;7.60;3.30;;;;;;;-0.89;59.62;100775.79;104984;1257;61031;-46
2023/03/30 03:42:16;;;;;;;8.50;3.40;;;;;;;-0.90;59.83;100773.24;105255;1254;61034;-46
2023/03/30 03:44:51;;;;;;;9.40;4.20;;;;;;;-0.91;59.82;100772.39;105004;1257;73628;-46
2023/03/30 03:47:21;;;;;;;9.40;2.60;;;;;;;-0.94;60.12;100774.20;105451;1259;71300;-47
2023/03/30 03:49:50;;;;;;;6.70;2.60;;;;;;;-0.89;60.04;100773.37;105180;1257;72589;-46
2023/03/30 03:52:19;;;;;;;8.50;2.30;;;;;;;-0.80;59.68;100770.55;105019;1257;60837;-46
2023/03/30 03:54:47;;;;;;;7.50;3.00;;;;;;;-0.72;59.49;100774.67;105200;1257;61103;-46
2023/03/30 03:57:24;;;;;;;4.90;1.80;;;;;;;-0.67;59.23;100776.06;105391;1254;74978;-47
2023/03/30 03:59:55;;;;;;;7.60;3.00;;;;;;;-0.61;59.16;100779.52;105333;1257;71650;-47
2023/03/30 04:02:25;;;;;;;8.00;3.50;;;;;;;-0.61;59.08;100783.98;105301;1257;74069;-47
2023/03/30 04:04:54;;;;;;;8.70;2.90;;;;;;;-0.62;59.05;100785.73;105271;1256;61781;-47
2023/03/30 04:07:24;;;;;;;12.10;3.80;;;;;;;-0.63;58.87;100781.83;105788;1254;61115;-47
2023/03/30 04:09:52;;;;;;;10.00;2.70;;;;;;;-0.67;58.87;100777.43;105130;1262;74809;-48
2023/03/30 04:12:53;;;;;;;7.10;3.40;;;;;;;-0.70;58.83;100778.38;104925;1255;62852;-48
2023/03/30 04:15:48;;;;;;;7.30;2.40;;;;;;;-0.75;58.71;100781.61;104997;1260;64624;-46
2023/03/30 04:18:32;;;;;;;9.80;2.80;;;;;;;-0.79;58.87;100785.16;105486;1260;60494;-47
2023/03/30 04:21:20;;;;;;;6.10;2.40;;;;;;;-0.80;58.91;100792.09;105273;1254;61321;-48
2023/03/30 04:24:03;;;;;;;5.40;2.00;;;;;;;-0.82;58.88;100791.95;105416;1261;74942;-48
2023/03/30 04:26:51;;;;;;;8.60;2.70;;;;;;;-0.82;58.89;100791.97;105339;1257;71400;-48
2023/03/30 04:29:39;;;;;;;6.50;2.00;;;;;;;-0.81;58.84;100793.16;105177;1260;73430;-48
2023/03/30 04:32:20;;;;;;;7.30;2.40;;;;;;;-0.80;58.90;100798.12;105258;1257;61305;-49
2023/03/30 04:34:55;;;;;;;5.60;2.10;;;;;;;-0.78;58.81;100799.45;105443;1257;61657;-47
2023/03/30 04:37:29;;;;;;;6.80;2.30;;;;;;;-0.76;58.74;100799.39;105610;1259;75060;-47
2023/03/30 04:40:15;;;;;;;7.10;3.70;;;;;;;-0.72;58.74;100802.72;105519;1257;70063;-47
2023/03/30 04:43:12;;;;;;;6.40;2.20;;;;;;;-0.68;58.65;100806.92;105532;1259;63989;-47
2023/03/30 04:45:55;;;;;;;6.20;3.40;;;;;;;-0.64;58.43;100808.37;105794;1260;61112;-46
2023/03/30 04:48:43;;;;;;;6.70;2.40;;;;;;;-0.54;58.22;100803.27;105477;1259;60552;-48
2023/03/30 04:51:17;;;;;;;5.70;1.80;;;;;;;-0.38;58.04;100805.45;105396;1259;74835;-45
2023/03/30 04:54:05;;;;;;;5.00;2.60;;;;;;;-0.24;57.81;100806.91;105376;1257;71307;-46
2023/03/30 04:56:54;;;;;;;5.90;1.50;;;;;;;-0.10;57.41;100807.91;105123;1257;73576;-45
2023/03/30 04:59:42;;;;;;;6.70;2.50;;;;;;;-0.03;57.24;100807.02;105266;1257;61140;-47
2023/03/30 05:02:37;;;;;;;7.90;2.70;;;;;;;0.02;57.16;100805.14;108838;1256;58203;-47
2023/03/30 05:05:29;;;;;;;4.10;1.30;;;;;;;0.10;56.77;100804.23;109054;1258;75076;-47
2023/03/30 05:08:24;;;;;;;6.10;2.50;;;;;;;0.16;56.39;100804.91;105490;1259;62259;-47
2023/03/30 05:11:15;;;;;;;6.30;1.80;;;;;;;0.25;56.26;100802.59;105140;1254;64860;-47
2023/03/30 05:13:53;;;;;;;5.80;1.70;;;;;;;0.30;55.81;100808.98;108944;1254;60484;-48
2023/03/30 05:16:41;;;;;;;6.80;1.90;;;;;;;0.32;55.37;100809.58;105039;1257;61677;-47
2023/03/30 05:19:25;;;;;;;5.30;2.10;;;;;;;0.37;55.54;100804.63;105414;1266;75196;-47
2023/03/30 05:22:11;;;;;;;6.30;2.30;;;;;;;0.45;55.42;100799.55;105559;1254;71238;-48
2023/03/30 05:24:45;;;;;;;8.40;2.70;;;;;;;0.52;55.02;100796.55;105635;1254;73665;-47
2023/03/30 05:27:32;;;;;;;8.80;1.40;;;;;;;0.56;54.78;100795.73;105284;1259;60555;-51
2023/03/30 05:30:27;;;;;;;5.90;2.40;;;;;;;0.59;54.53;100794.61;105093;1263;60508;-47
2023/03/30 05:33:14;;;;;;;4.50;1.50;;;;;;;0.64;54.27;100795.83;105196;1260;74670;-47
2023/03/30 05:36:03;;;;;;;6.10;2.30;;;;;;;0.70;54.01;100799.94;105143;1260;71239;-46
2023/03/30 05:38:55;;;;;;;4.00;1.30;;;;;;;0.79;53.49;100805.34;105436;1259;74065;-47
2023/03/30 05:41:42;;;;;;;7.60;2.20;;;;;;;0.84;53.10;100794.85;105152;1260;61553;-46
2023/03/30 05:44:27;;;;;;;5.10;1.50;;;;;;;0.91;53.22;100792.86;105506;1254;60988;-47
2023/03/30 05:47:20;;;;;;;5.20;1.90;;;;;;;0.98;52.80;100791.77;105321;1261;66227;-48
2023/03/30 05:50:12;;;;;;;8.00;3.50;;;;;;;1.07;52.65;100792.00;105314;1257;71543;-46
2023/03/30 05:52:52;;;;;;;5.80;1.50;;;;;;;1.15;52.40;100795.38;105301;1257;73620;-46
2023/03/30 05:55:46;;;;;;;4.00;1.50;;;;;;;1.21;52.31;100791.84;105122;1259;60460;-47
2023/03/30 05:58:45;;;;;;;5.90;1.60;;;;;;;1.29;51.78;100795.71;105267;1260;60495;-47
2023/03/30 06:01:26;;;;;;;5.90;1.70;;;;;;;1.40;51.76;100797.24;105277;1258;74857;-47
2023/03/30 06:03:55;;;;;;;6.00;2.20;;;;;;;1.49;51.32;100799.52;105308;1260;71277;-47
2023/03/30 06:06:24;;;;;;;6.10;1.80;;;;;;;1.57;50.16;100792.84;105238;1259;71412;-47
2023/03/30 06:08:54;;;;;;;6.40;2.60;;;;;;;1.62;49.68;100798.71;105442;1262;60556;-48
2023/03/30 06:11:24;;;;;;;7.00;2.00;;;;;;;1.66;49.97;100800.13;105247;1255;60565;-48
2023/03/30 06:14:16;;;;;;;4.20;1.50;;;;;;;1.73;50.06;100800.08;105220;1260;66357;-46
2023/03/30 06:16:51;;;;;;;7.90;2.10;;;;;;;1.81;49.94;100799.77;105444;1257;71131;-48
2023/03/30 06:19:20;;;;;;;7.30;2.90;;;;;;;1.87;49.22;100800.05;105301;1263;73597;-46
2023/03/30 06:21:49;;;;;;;5.10;2.00;;;;;;;1.92;48.95;100794.51;105057;1269;60466;-46
2023/03/30 06:24:36;;;;;;;6.30;1.90;;;;;;;1.98;48.63;100797.91;104942;1266;60460;-46
2023/03/30 06:27:04;;;;;;;6.20;1.80;;;;;;;2.01;48.45;100796.41;105229;1259;74986;-46
2023/03/30 06:29:33;;;;;;;5.50;2.30;;;;;;;2.06;48.17;100798.48;105163;1259;71485;-46
2023/03/30 06:32:02;;;;;;;5.90;2.10;;;;;;;2.09;47.28;100795.95;105263;1260;73386;-48
2023/03/30 06:34:52;;;;;;;6.70;2.10;;;;;;;2.15;47.72;100794.14;105010;1255;60423;-46
2023/03/30 06:37:21;;;;;;;5.80;1.70;;;;;;;2.19;47.34;100793.13;105282;1261;61338;-46
2023/03/30 06:39:49;;;;;;;3.60;1.20;;;;;;;2.24;47.03;100795.01;105440;1259;74937;-47
2023/03/30 06:42:18;;;;;;;5.30;2.00;;;;;;;2.29;47.07;100797.61;105325;1260;71397;-48
2023/03/30 06:45:08;;;;;;;4.70;1.70;;;;;;;2.36;46.77;100800.11;105007;1260;65087;-52
2023/03/30 06:47:38;;;;;;;5.40;1.50;;;;;;;2.40;46.01;100793.00;105238;1260;61322;-48
2023/03/30 06:50:07;;;;;;;4.50;1.50;;;;;;;2.47;46.12;100797.80;105458;1257;61865;-47
2023/03/30 06:52:56;;;;;;;8.20;3.30;;;;;;;2.51;46.02;100794.66;105411;1260;66120;-46
2023/03/30 06:55:27;;;;;;;4.60;1.30;;;;;;;2.58;45.79;100795.78;106976;1260;69194;-47
2023/03/30 06:57:59;;;;;;;4.60;1.40;;;;;;;2.62;45.64;100792.67;105392;1260;73685;-47
2023/03/30 07:00:28;;;;;;;4.30;0.90;;;;;;;2.67;45.22;100797.83;105406;1260;60478;-47
2023/03/30 07:03:17;;;;;;;3.80;1.50;;;;;;;2.70;44.68;100794.41;105259;1258;60782;-47
2023/03/30 07:06:24;;;;;;;5.60;1.30;;;;;;;2.71;44.48;100787.61;105224;1257;65918;-46
2023/03/30 07:08:53;;;;;;;4.10;1.10;;;;;;;2.72;44.42;100785.70;105265;1260;71167;-46
2023/03/30 07:11:25;;;;;;;3.80;1.20;;;;;;;2.75;44.56;100786.95;105356;1258;73821;-46
2023/03/30 07:13:57;;;;;;;3.30;1.40;;;;;;;2.79;44.68;100791.27;105249;1257;60753;-46
2023/03/30 07:16:26;;;;;;;4.00;1.00;;;;;;;2.84;44.24;100792.14;105236;1258;60463;-47
2023/03/30 07:18:56;;;;;;;4.20;1.10;;;;;;;2.89;45.06;100793.13;105400;1260;74799;-46
2023/03/30 07:21:26;;;;;;;5.10;1.10;;;;;;;2.97;44.93;100790.88;105247;1260;71241;-46
2023/03/30 07:23:55;;;;;;;5.40;1.80;;;;;;;3.06;44.90;100787.07;105443;1260;72563;-47
2023/03/30 07:26:32;;;;;;;3.70;1.60;;;;;;;3.12;44.26;100784.70;105319;1257;60458;-45
2023/03/30 07:29:07;;;;;;;7.00;1.90;;;;;;;3.15;44.37;100783.02;105395;1259;61022;-46
2023/03/30 07:31:37;;;;;;;7.50;1.80;;;;;;;3.14;44.30;100782.03;105428;1260;74815;-45
2023/03/30 07:34:10;;;;;;;4.80;1.50;;;;;;;3.11;44.17;100778.32;105405;1258;71018;-46
2023/03/30 07:36:44;;;;;;;3.90;1.50;;;;;;;3.13;44.74;100779.82;105419;1260;73459;-61
2023/03/30 07:39:15;;;;;;;4.70;1.90;;;;;;;3.19;45.08;100777.65;105588;1256;60635;-64
2023/03/30 07:41:45;;;;;;;6.80;1.40;;;;;;;3.22;44.18;100777.70;105476;1255;61073;-64
2023/03/30 07:44:13;;;;;;;5.20;1.50;;;;;;;3.29;44.65;100780.31;105450;1255;74892;-61
2023/03/30 07:46:43;;;;;;;4.80;1.70;;;;;;;3.36;44.28;100779.38;105298;1260;71290;-61
2023/03/30 07:49:16;;;;;;;5.60;2.10;;;;;;;3.41;44.33;100772.36;105265;1260;72295;-61
2023/03/30 07:51:45;;;;;;;6.80;2.00;;;;;;;3.46;44.36;100770.57;105289;1260;60814;-61
2023/03/30 07:54:25;;;;;;;8.10;2.30;;;;;;;3.52;44.56;100770.65;105411;1257;60884;-61
2023/03/30 07:57:33;;;;;;;5.50;1.90;;;;;;;3.61;43.77;100766.10;105798;1261;66264;-62
2023/03/30 08:00:05;;;;;;;4.70;2.00;;;;;;;3.68;43.70;100759.87;105268;1257;71242;-61
2023/03/30 08:02:40;;;;;;;4.10;1.50;;;;;;;3.75;43.36;100756.64;105108;1257;73735;-62
2023/03/30 08:05:14;;;;;;;6.50;2.10;;;;;;;3.78;42.47;100751.63;105241;1259;60575;-61
2023/03/30 08:07:55;;;;;;;7.60;2.10;;;;;;;3.83;42.56;100752.80;105449;1255;60447;-64
2023/03/30 08:10:28;;;;;;;5.20;2.50;;;;;;;3.86;42.90;100745.70;105491;1257;75190;-63
2023/03/30 08:12:58;;;;;;;7.10;1.90;;;;;;;3.86;42.31;100740.50;105538;1259;70430;-67
2023/03/30 08:15:28;;;;;;;5.80;1.40;;;;;;;3.88;42.61;100734.68;105064;1254;630513;-63
2023/03/30 08:19:34;;;;;;;4.50;1.20;;;;;;;3.73;43.30;100732.77;102492;1291;601355;-64
2023/03/30 08:22:02;;;;;;;6.30;2.00;;;;;;;3.99;42.21;100727.08;104775;1263;60492;-65
2023/03/30 08:24:31;;;;;;;4.20;1.90;;;;;;;4.05;42.22;100726.77;104812;1265;61278;-62
2023/03/30 08:27:00;;;;;;;4.30;1.40;;;;;;;4.06;41.83;100719.44;104935;1267;73163;-62
2023/03/30 08:29:30;;;;;;;6.60;3.40;;;;;;;4.12;41.84;100721.43;104997;1270;71245;-64
2023/03/30 08:31:58;;;;;;;4.40;1.30;;;;;;;4.15;41.72;100716.94;105562;1257;181494;-65
2023/03/30 08:34:27;;;;;;;3.30;1.00;;;;;;;4.22;42.18;100717.62;105756;1254;60673;-65
2023/03/30 08:36:56;;;;;;;5.10;1.50;;;;;;;4.28;41.93;100718.91;106565;1253;60446;-67
2023/03/30 08:39:29;;;;;;;4.80;1.30;;;;;;;4.34;41.39;100709.41;105781;1251;73176;-63
2023/03/30 08:42:31;;;;;;;6.20;1.90;;;;;;;4.43;41.74;100713.48;105813;1251;70219;-62
2023/03/30 08:45:04;;;;;;;4.20;1.00;;;;;;;4.52;41.24;100709.41;105713;1254;65014;-63
2023/03/30 08:47:38;;;;;;;4.00;1.40;;;;;;;4.59;39.41;100713.75;105830;1252;60848;-62
2023/03/30 08:50:08;;;;;;;7.00;2.70;;;;;;;4.62;39.09;100713.91;105922;1254;60265;-62
2023/03/30 08:52:37;;;;;;;4.20;1.10;;;;;;;4.59;38.25;100711.16;105790;1256;73866;-63
2023/03/30 08:55:23;;;;;;;5.40;1.40;;;;;;;4.61;39.00;100708.41;105611;1251;70311;-65
2023/03/30 08:58:02;;;;;;;3.10;1.20;;;;;;;4.65;39.73;100704.07;105769;1251;64972;-63
2023/03/30 09:00:39;;;;;;;4.00;1.30;;;;;;;4.71;38.59;100699.44;105843;1251;60881;-63
2023/03/30 09:03:27;;;;;;;3.30;1.00;;;;;;;4.75;38.82;100694.88;106157;1254;59990;-64
2023/03/30 09:05:59;;;;;;;6.90;1.20;;;;;;;4.79;38.85;100694.65;106027;1253;65410;-67
2023/03/30 09:08:30;;;;;;;3.80;1.40;;;;;;;4.82;39.58;100690.66;106048;1253;70345;-66
2023/03/30 09:11:00;;;;;;;8.30;3.60;;;;;;;4.88;40.24;100696.46;105725;1257;73587;-67
2023/03/30 09:13:34;;;;;;;3.80;1.50;;;;;;;4.97;40.50;100692.38;105855;1254;59895;-64
2023/03/30 09:16:08;;;;;;;7.20;2.30;;;;;;;5.06;40.42;100691.71;106078;1254;60034;-64
2023/03/30 09:18:37;;;;;;;6.00;1.60;;;;;;;5.13;39.64;100684.91;105899;1253;73881;-65
2023/03/30 09:21:08;;;;;;;7.20;3.40;;;;;;;5.19;39.69;100683.73;105753;1251;71318;-65
2023/03/30 09:23:36;;;;;;;7.10;2.40;;;;;;;5.24;38.88;100683.52;105882;1251;73743;-67
2023/03/30 09:26:33;;;;;;;3.20;1.30;;;;;;;5.26;39.00;100679.21;105758;1252;60096;-65
2023/03/30 09:29:13;;;;;;;6.20;1.70;;;;;;;5.31;39.57;100680.49;105774;1251;59834;-65
2023/03/30 09:31:50;;;;;;;8.10;3.30;;;;;;;5.40;39.64;100676.35;105856;1254;65120;-66
2023/03/30 09:34:26;;;;;;;5.80;1.30;;;;;;;5.53;39.65;100672.36;105832;1251;62696;-64
2023/03/30 09:37:07;;;;;;;5.40;2.10;;;;;;;5.67;39.14;100670.39;105745;1251;65524;-67
2023/03/30 09:39:37;;;;;;;3.00;1.10;;;;;;;5.80;38.42;100665.15;106079;1251;59643;-58
2023/03/30 09:42:21;;;;;;;4.60;1.20;;;;;;;5.89;37.52;100662.03;105845;1249;61284;-63
2023/03/30 09:44:51;;;;;;;6.50;2.80;;;;;;;5.96;37.61;100655.20;105610;1254;66469;-63
2023/03/30 09:47:23;;;;;;;7.70;1.70;;;;;;;6.02;37.64;100651.25;105844;1250;71376;-64
2023/03/30 09:49:59;;;;;;;7.00;3.20;;;;;;;6.07;37.39;100661.21;105938;1251;66952;-64
2023/03/30 09:52:35;;;;;;;3.70;1.30;;;;;;;6.12;37.64;100653.80;105767;1251;59818;-63
2023/03/30 09:55:33;;;;;;;;;;;;;;;6.19;37.30;100649.95;105852;1251;59739;-64
2023/03/30 09:58:17;;;;;;;4.50;1.40;;;;;;;6.22;36.62;100644.71;105880;1251;65459;-64
2023/03/30 10:00:46;;;;;;;6.80;2.60;;;;;;;6.26;36.77;100644.69;106052;1254;62811;-65
2023/03/30 10:03:19;;;;;;;6.50;2.60;;;;;;;6.34;36.25;100641.94;105762;1251;63816;-67
2023/03/30 10:06:08;;;;;;;5.90;2.20;;;;;;;6.42;35.42;100642.00;105839;1251;59751;-67
2023/03/30 10:08:54;;;;;;;3.40;1.10;;;;;;;6.47;36.11;100644.63;106478;1251;60127;-66
2023/03/30 10:11:52;;;;;;;6.60;3.10;;;;;;;6.56;36.40;100641.17;106152;1251;65661;-67
2023/03/30 10:14:28;;;;;;;;;;;;;;;6.62;35.97;100638.17;105792;1251;62630;-66
2023/03/30 10:16:57;;;;;;;4.10;1.10;;;;;;;6.68;36.05;100633.63;105902;1251;64001;-65
2023/03/30 10:19:28;;;;;;;4.40;1.30;;;;;;;6.77;35.56;100631.88;105725;1257;59926;-62
2023/03/30 10:21:58;;;;;;;6.00;2.60;;;;;;;6.84;34.91;100632.02;105770;1253;59758;-63
2023/03/30 10:24:32;;;;;;;5.90;2.50;;;;;;;6.85;35.43;100628.82;105664;1251;64336;-64
2023/03/30 10:27:11;;;;;;;4.40;1.20;;;;;;;6.78;34.76;100622.59;105684;1254;62565;-65
2023/03/30 10:29:49;;;;;;;8.60;2.80;;;;;;;6.77;34.99;100623.89;106366;1254;64752;-66
2023/03/30 10:32:22;;;;;;;5.10;2.50;;;;;;;6.78;34.93;100614.23;105734;1251;60044;-67
2023/03/30 10:34:55;;;;;;;8.80;2.90;;;;;;;6.81;34.81;100619.61;105886;1251;59535;-65
2023/03/30 10:37:28;;;;;;;5.00;1.50;;;;;;;6.88;35.27;100618.19;105770;1254;65122;-67
2023/03/30 10:39:57;;;;;;;6.60;3.00;;;;;;;6.96;35.45;100611.07;107159;1254;62989;-66
2023/03/30 10:42:25;;;;;;;8.50;3.20;;;;;;;7.02;35.34;100609.27;106272;1251;65013;-66
2023/03/30 10:44:55;;;;;;;5.40;2.20;;;;;;;7.08;35.53;100616.75;106045;1250;59759;-67
2023/03/30 10:47:38;;;;;;;3.60;1.00;;;;;;;7.16;36.03;100616.65;106449;1250;59755;-65
2023/03/30 10:50:34;;;;;;;9.00;2.70;;;;;;;7.30;34.50;100610.73;105781;1257;65484;-65
2023/03/30 10:53:37;;;;;;;6.50;2.60;;;;;;;7.42;34.69;100606.27;105608;1251;61187;-66
2023/03/30 10:56:19;;;;;;;7.20;2.20;;;;;;;7.53;33.88;100605.58;105757;1251;64792;-65
2023/03/30 10:59:10;;;;;;;7.10;2.80;;;;;;;7.61;33.52;100604.02;106251;1251;59666;-64
2023/03/30 11:01:52;;;;;;;7.40;2.60;;;;;;;7.64;33.88;100597.52;105566;1249;59694;-63
2023/03/30 11:04:45;;;;;;;5.70;2.30;;;;;;;7.68;34.39;100595.40;105975;1251;65391;-64
2023/03/30 11:07:22;;;;;;;5.90;2.40;;;;;;;7.74;33.08;100600.41;105964;1251;62452;-64
2023/03/30 11:09:53;;;;;;;7.50;2.20;;;;;;;7.80;32.16;100602.09;105920;1251;65000;-64
2023/03/30 11:12:22;;;;;;;6.80;2.40;;;;;;;7.83;32.00;100596.15;106131;1251;59694;-66
2023/03/30 11:15:21;;;;;;;4.10;1.50;;;;;;;7.87;31.93;100590.84;105728;1257;59679;-61
2023/03/30 11:18:13;;;;;;;5.60;2.10;;;;;;;7.91;31.33;100589.36;105817;1251;65199;-62
2023/03/30 11:20:55;;;;;;;6.30;2.20;;;;;;;7.97;31.58;100589.45;105391;1251;62665;-60
2023/03/30 11:23:49;;;;;;;4.60;1.80;;;;;;;8.06;31.44;100584.02;105821;1254;64774;-60
2023/03/30 11:26:46;;;;;;;10.10;1.80;;;;;;;8.15;31.63;100583.06;105719;1254;59719;-57
2023/03/30 11:29:30;;;;;;;9.50;2.70;;;;;;;8.24;31.38;100580.55;105780;1252;60304;-62
2023/03/30 11:32:36;;;;;;;6.60;1.30;;;;;;;8.27;31.39;100572.79;105747;1251;64379;-60
2023/03/30 11:35:25;;;;;;;5.20;1.00;;;;;;;8.29;30.93;100573.73;106008;1252;62207;-61
2023/03/30 11:38:08;;;;;;;4.60;1.80;;;;;;;8.31;31.29;100568.67;105774;1253;65005;-60
2023/03/30 11:40:41;;;;;;;4.20;1.30;;;;;;;8.35;30.23;100569.30;105720;1254;59326;-58
2023/03/30 11:43:11;;;;;;;3.90;1.40;;;;;;;8.37;29.78;100563.55;105789;1253;59771;-60
2023/03/30 11:46:02;;;;;;;4.50;1.80;;;;;;;8.38;29.48;100562.95;105818;1251;65355;-60
2023/03/30 11:48:31;;;;;;;7.30;1.70;;;;;;;8.38;30.30;100560.85;105886;1251;62627;-60
2023/03/30 11:51:12;;;;;;;5.60;1.80;;;;;;;8.37;31.15;100563.20;105751;1251;65030;-60
2023/03/30 11:53:50;;;;;;;4.10;1.60;;;;;;;8.42;31.67;100554.66;105576;1251;59545;-60
2023/03/30 11:56:45;;;;;;;4.00;1.70;;;;;;;8.51;32.11;100552.33;106787;1251;59638;-61
2023/03/30 11:59:29;;;;;;;4.80;2.00;;;;;;;8.63;31.76;100551.19;105829;1252;64540;-63
2023/03/30 12:02:02;;;;;;;4.60;1.70;;;;;;;8.72;31.30;100546.19;105868;1251;62777;-61
2023/03/30 12:05:10;;;;;;;4.80;1.80;;;;;;;8.79;30.84;100548.69;105757;1254;63903;-60
2023/03/30 12:07:51;;;;;;;5.90;1.90;;;;;;;8.81;30.44;100548.89;105750;1251;59660;-60
2023/03/30 12:10:27;;;;;;;6.90;1.90;;;;;;;8.83;30.52;100549.56;105803;1251;59678;-60
2023/03/30 12:12:55;;;;;;;4.00;1.30;;;;;;;8.90;30.64;100546.83;105839;1251;65085;-60